createdAt,value
2022-11-28T00:00:15.102Z,87
2022-11-28T00:05:15.108Z,87
2022-11-28T00:10:15.094Z,87
2022-11-28T00:15:15.097Z,87
2022-11-28T00:20:15.110Z,87
2022-11-28T00:25:15.089Z,87
2022-11-28T00:30:15.093Z,87
2022-11-28T00:35:15.095Z,86
2022-11-28T00:40:15.096Z,86
2022-11-28T00:45:15.094Z,86
2022-11-28T00:50:15.088Z,86
2022-11-28T00:55:15.091Z,86
2022-11-28T01:00:15.097Z,86
2022-11-28T01:05:15.099Z,86
2022-11-28T01:10:15.089Z,86
2022-11-28T01:15:15.104Z,87
2022-11-28T01:20:15.095Z,87
2022-11-28T01:25:15.091Z,87
2022-11-28T01:30:15.098Z,87
2022-11-28T01:35:15.106Z,87
2022-11-28T01:40:15.095Z,87
2022-11-28T01:45:15.099Z,87
2022-11-28T01:50:15.104Z,87
2022-11-28T01:55:15.105Z,87
2022-11-28T02:00:15.091Z,87
2022-11-28T02:05:15.097Z,87
2022-11-28T02:10:15.091Z,87
2022-11-28T02:15:15.112Z,87
2022-11-28T02:20:15.097Z,87
2022-11-28T02:25:15.094Z,87
2022-11-28T02:30:15.090Z,87
2022-11-28T02:35:15.103Z,87
2022-11-28T02:40:15.106Z,87
2022-11-28T02:45:15.094Z,87
2022-11-28T02:50:15.087Z,87
2022-11-28T02:55:15.090Z,88
2022-11-28T03:00:17.731Z,88
2022-11-28T03:05:15.094Z,88
2022-11-28T03:10:15.102Z,88
2022-11-28T03:15:15.102Z,88
2022-11-28T03:20:15.115Z,88
2022-11-28T03:25:15.114Z,88
2022-11-28T03:30:15.114Z,88
2022-11-28T03:35:15.102Z,88
2022-11-28T03:40:15.093Z,88
2022-11-28T03:45:15.103Z,88
2022-11-28T03:50:15.087Z,88
2022-11-28T03:55:15.102Z,88
2022-11-28T04:00:15.100Z,88
2022-11-28T04:05:15.091Z,88
2022-11-28T04:10:15.091Z,88
2022-11-28T04:15:15.092Z,88
2022-11-28T04:20:15.102Z,88
2022-11-28T04:25:15.113Z,88
2022-11-28T04:30:15.093Z,88
2022-11-28T04:35:15.099Z,88
2022-11-28T04:40:15.100Z,88
2022-11-28T04:45:15.098Z,88
2022-11-28T04:50:15.113Z,88
2022-11-28T04:55:15.092Z,88
2022-11-28T05:00:15.091Z,88
2022-11-28T05:05:15.093Z,88
2022-11-28T05:10:15.094Z,88
2022-11-28T05:15:15.098Z,88
2022-11-28T05:20:15.088Z,88
2022-11-28T05:25:15.094Z,88
2022-11-28T05:30:15.091Z,88
2022-11-28T05:35:15.098Z,87
2022-11-28T05:40:15.092Z,87
2022-11-28T05:45:15.101Z,87
2022-11-28T05:50:15.103Z,88
2022-11-28T05:55:15.112Z,88
2022-11-28T06:00:15.098Z,88
2022-11-28T06:05:35.015Z,88
2022-11-28T06:10:15.103Z,88
2022-11-28T06:15:15.101Z,88
2022-11-28T06:20:15.101Z,88
2022-11-28T06:25:15.112Z,88
2022-11-28T06:30:15.092Z,88
2022-11-28T06:35:15.102Z,88
2022-11-28T06:40:15.084Z,88
2022-11-28T06:45:15.097Z,88
2022-11-28T06:50:15.091Z,88
2022-11-28T06:55:15.096Z,88
2022-11-28T07:00:15.095Z,88
2022-11-28T07:05:15.102Z,88
2022-11-28T07:10:15.093Z,88
2022-11-28T07:15:15.112Z,88
2022-11-28T07:20:15.103Z,88
2022-11-28T07:25:15.115Z,88
2022-11-28T07:30:15.098Z,88
2022-11-28T07:35:15.103Z,88
2022-11-28T07:40:15.103Z,88
2022-11-28T07:45:15.090Z,88
2022-11-28T07:50:15.162Z,88
2022-11-28T07:55:15.092Z,88
2022-11-28T08:00:15.098Z,88
2022-11-28T08:05:15.184Z,88
2022-11-28T08:10:15.097Z,88
2022-11-28T08:15:15.114Z,88
2022-11-28T08:20:15.096Z,88
2022-11-28T08:25:15.094Z,88
2022-11-28T08:30:15.088Z,88
2022-11-28T08:35:15.107Z,88
2022-11-28T08:40:15.095Z,88
2022-11-28T08:45:15.106Z,88
2022-11-28T08:50:15.096Z,88
2022-11-28T08:55:15.099Z,88
2022-11-28T09:00:15.115Z,87
2022-11-28T09:05:15.097Z,87
2022-11-28T09:10:15.111Z,87
2022-11-28T09:15:15.098Z,87
2022-11-28T09:20:15.091Z,87
2022-11-28T09:25:15.092Z,87
2022-11-28T09:30:15.104Z,87
2022-11-28T09:35:15.108Z,87
2022-11-28T09:40:15.731Z,87
2022-11-28T09:45:15.091Z,87
2022-11-28T09:50:15.100Z,87
2022-11-28T09:55:15.108Z,87
2022-11-28T10:00:15.100Z,87
2022-11-28T10:05:15.107Z,87
2022-11-28T10:10:15.111Z,86
2022-11-28T10:15:15.105Z,86
2022-11-28T10:20:15.100Z,86
2022-11-28T10:25:15.105Z,86
2022-11-28T10:30:15.092Z,86
2022-11-28T10:35:15.105Z,86
2022-11-28T10:40:15.097Z,86
2022-11-28T10:45:15.096Z,86
2022-11-28T10:50:15.236Z,85
2022-11-28T10:55:15.102Z,85
2022-11-28T11:00:15.202Z,85
2022-11-28T11:05:15.102Z,85
2022-11-28T11:10:15.103Z,84
2022-11-28T11:15:15.089Z,84
2022-11-28T11:20:15.099Z,84
2022-11-28T11:25:15.100Z,84
2022-11-28T11:30:15.106Z,84
2022-11-28T11:35:15.103Z,84
2022-11-28T11:40:15.084Z,84
2022-11-28T11:45:15.097Z,83
2022-11-28T11:50:15.096Z,83
2022-11-28T11:55:15.098Z,84
2022-11-28T12:00:15.117Z,84
2022-11-28T12:05:15.092Z,83
2022-11-28T12:10:15.155Z,83
2022-11-28T12:15:15.114Z,83
2022-11-28T12:20:15.099Z,84
2022-11-28T12:25:15.099Z,84
2022-11-28T12:30:15.092Z,84
2022-11-28T12:35:15.105Z,84
2022-11-28T12:40:15.099Z,84
2022-11-28T12:45:15.124Z,84
2022-11-28T12:50:15.096Z,84
2022-11-28T12:55:15.109Z,83
2022-11-28T13:00:15.099Z,83
2022-11-28T13:05:15.095Z,83
2022-11-28T13:10:15.086Z,83
2022-11-28T13:15:15.099Z,83
2022-11-28T13:20:15.092Z,83
2022-11-28T13:25:15.113Z,83
2022-11-28T13:30:15.107Z,83
2022-11-28T13:35:15.099Z,83
2022-11-28T13:40:15.094Z,83
2022-11-28T13:45:15.107Z,83
2022-11-28T13:50:15.095Z,83
2022-11-28T13:55:15.118Z,84
2022-11-28T14:00:15.106Z,83
2022-11-28T14:05:15.097Z,83
2022-11-28T14:10:15.098Z,83
2022-11-28T14:15:15.310Z,83
2022-11-28T14:20:15.085Z,83
2022-11-28T14:25:15.106Z,83
2022-11-28T14:30:15.082Z,83
2022-11-28T14:35:15.096Z,84
2022-11-28T14:40:15.082Z,84
2022-11-28T14:45:15.095Z,84
2022-11-28T14:50:15.108Z,84
2022-11-28T14:55:15.104Z,84
2022-11-28T15:00:15.092Z,84
2022-11-28T15:05:15.089Z,84
2022-11-28T15:10:15.084Z,84
2022-11-28T15:15:15.096Z,84
2022-11-28T15:20:15.107Z,84
2022-11-28T15:25:15.118Z,84
2022-11-28T15:30:15.090Z,84
2022-11-28T15:35:15.103Z,85
2022-11-28T15:40:15.099Z,85
2022-11-28T15:45:15.096Z,85
2022-11-28T15:50:15.110Z,85
2022-11-28T15:55:15.096Z,85
2022-11-28T16:00:15.086Z,85
2022-11-28T16:05:15.088Z,85
2022-11-28T16:10:15.099Z,85
2022-11-28T16:15:15.101Z,86
2022-11-28T16:20:15.089Z,86
2022-11-28T16:25:15.087Z,86
2022-11-28T16:30:15.088Z,86
2022-11-28T16:35:15.094Z,86
2022-11-28T16:40:15.102Z,86
2022-11-28T16:45:15.095Z,86
2022-11-28T16:50:15.995Z,86
2022-11-28T16:55:15.093Z,86
2022-11-28T17:00:15.095Z,86
2022-11-28T17:05:15.099Z,86
2022-11-28T17:10:15.112Z,86
2022-11-28T17:15:15.104Z,86
2022-11-28T17:20:15.093Z,86
2022-11-28T17:25:15.164Z,86
2022-11-28T17:30:15.097Z,86
2022-11-28T17:35:15.098Z,86
2022-11-28T17:40:15.100Z,86
2022-11-28T17:45:15.108Z,86
2022-11-28T17:50:15.101Z,86
2022-11-28T17:55:15.096Z,86
2022-11-28T18:00:15.097Z,86
2022-11-28T18:05:15.103Z,86
2022-11-28T18:10:15.099Z,86
2022-11-28T18:15:15.094Z,86
2022-11-28T18:20:15.093Z,86
2022-11-28T18:25:15.105Z,86
2022-11-28T18:30:15.094Z,86
2022-11-28T18:35:15.095Z,87
2022-11-28T18:40:15.085Z,87
2022-11-28T18:45:15.092Z,87
2022-11-28T18:50:15.106Z,87
2022-11-28T18:55:15.101Z,87
2022-11-28T19:00:15.088Z,87
2022-11-28T19:05:15.108Z,87
2022-11-28T19:10:15.082Z,88
2022-11-28T19:15:15.094Z,88
2022-11-28T19:20:15.084Z,88
2022-11-28T19:25:15.104Z,88
2022-11-28T19:30:15.085Z,88
2022-11-28T19:35:15.091Z,88
2022-11-28T19:40:15.186Z,88
2022-11-28T19:45:15.091Z,88
2022-11-28T19:50:15.079Z,88
2022-11-28T19:55:15.096Z,88
2022-11-28T20:00:15.109Z,88
2022-11-28T20:05:15.096Z,88
2022-11-28T20:10:15.076Z,88
2022-11-28T20:15:18.128Z,88
2022-11-28T20:20:15.076Z,88
2022-11-28T20:25:19.268Z,88
2022-11-28T20:30:15.081Z,88
2022-11-28T20:35:15.091Z,88
2022-11-28T20:40:15.087Z,88
2022-11-28T20:45:15.092Z,88
2022-11-28T20:50:15.091Z,88
2022-11-28T20:55:15.087Z,88
2022-11-28T21:00:15.087Z,88
2022-11-28T21:05:15.089Z,89
2022-11-28T21:10:15.074Z,89
2022-11-28T21:15:15.084Z,89
2022-11-28T21:20:15.079Z,89
2022-11-28T21:25:15.083Z,89
2022-11-28T21:30:15.085Z,89
2022-11-28T21:35:15.088Z,89
2022-11-28T21:40:15.078Z,89
2022-11-28T21:45:15.096Z,89
2022-11-28T21:50:15.092Z,89
2022-11-28T21:55:15.095Z,89
2022-11-28T22:00:31.536Z,89
2022-11-28T22:05:15.112Z,89
2022-11-28T22:10:15.097Z,89
2022-11-28T22:15:15.106Z,89
2022-11-28T22:20:15.099Z,89
2022-11-28T22:25:15.103Z,89
2022-11-28T22:30:15.116Z,89
2022-11-28T22:35:15.148Z,89
2022-11-28T22:40:15.119Z,89
2022-11-28T22:45:15.114Z,89
2022-11-28T22:50:15.094Z,89
2022-11-28T22:55:15.101Z,89
2022-11-28T23:00:15.098Z,89
2022-11-28T23:05:15.108Z,89
2022-11-28T23:10:15.101Z,89
2022-11-28T23:15:15.103Z,89
2022-11-28T23:20:15.102Z,89
2022-11-28T23:25:15.101Z,90
2022-11-28T23:30:15.097Z,90
2022-11-28T23:35:15.101Z,90
2022-11-28T23:40:15.100Z,90
2022-11-28T23:45:15.108Z,90
2022-11-28T23:50:15.092Z,90
2022-11-28T23:55:15.101Z,90
